Time;durP1;ratioP1;P1;durP2;ratioP2;P2;SDS_P1;SDS_P2;PMS_P1;PMS_P2;Temp;Humidity;BMP_temperature;BMP_pressure;BME280_temperature;BME280_humidity;BME280_pressure;Samples;Min_cycle;Max_cycle;Signal;HPM_P1;HPM_P2
2023/05/05 00:00:57;;;;;;;4.45;3.95;;;;;;;;;;5012289;28;20509;-92
2023/05/05 00:03:25;;;;;;;4.22;3.83;;;;;;;;;;5012470;28;20094;-92
2023/05/05 00:05:53;;;;;;;6.40;4.20;;;;;;;;;;5013549;28;20050;-92
2023/05/05 00:08:21;;;;;;;6.72;4.43;;;;;;;;;;5012409;28;20076;-93
2023/05/05 00:10:49;;;;;;;4.93;3.85;;;;;;;;;;5012394;28;20073;-92
2023/05/05 00:13:17;;;;;;;6.57;4.10;;;;;;;;;;5012268;28;20054;-92
2023/05/05 00:15:45;;;;;;;5.28;4.20;;;;;;;;;;5012704;28;20165;-92
2023/05/05 00:18:14;;;;;;;6.75;4.22;;;;;;;;;;5017138;28;20080;-94
2023/05/05 00:20:42;;;;;;;6.78;4.45;;;;;;;;;;5015884;28;20050;-92
2023/05/05 00:23:10;;;;;;;6.47;4.65;;;;;;;;;;5015508;28;20085;-91
2023/05/05 00:25:37;;;;;;;4.95;4.25;;;;;;;;;;5015605;28;20046;-93
2023/05/05 00:28:05;;;;;;;7.90;4.28;;;;;;;;;;5015676;28;20056;-94
2023/05/05 00:30:33;;;;;;;5.18;4.05;;;;;;;;;;5026231;28;20058;-92
2023/05/05 00:33:00;;;;;;;4.32;4.03;;;;;;;;;;5032107;28;20059;-94
2023/05/05 00:35:28;;;;;;;5.38;4.57;;;;;;;;;;5015447;28;20050;-92
2023/05/05 00:37:55;;;;;;;6.10;4.50;;;;;;;;;;5015673;28;20045;-92
2023/05/05 00:40:22;;;;;;;4.50;4.20;;;;;;;;;;5015275;28;20132;-92
2023/05/05 00:42:49;;;;;;;6.25;4.40;;;;;;;;;;5015360;28;20402;-91
2023/05/05 00:45:18;;;;;;;5.60;4.10;;;;;;;;;;5015110;28;20473;-94
2023/05/05 00:47:50;;;;;;;5.68;4.32;;;;;;;;;;5017851;28;20054;-93
2023/05/05 00:50:30;;;;;;;7.00;4.40;;;;;;;;;;5033341;28;20080;-93
2023/05/05 00:53:01;;;;;;;11.45;4.95;;;;;;;;;;5015011;28;20062;-92
2023/05/05 00:55:29;;;;;;;7.10;4.18;;;;;;;;;;5014816;28;20088;-92
2023/05/05 00:58:01;;;;;;;5.72;4.38;;;;;;;;;;5015055;28;20064;-93
2023/05/05 01:00:29;;;;;;;6.43;4.93;;;;;;;;;;5015188;28;20526;-92
2023/05/05 01:02:56;;;;;;;4.57;4.18;;;;;;;;;;5014893;28;20053;-93
2023/05/05 01:05:24;;;;;;;9.02;4.93;;;;;;;;;;5014601;28;20088;-92
2023/05/05 01:08:01;;;;;;;7.15;4.75;;;;;;;;;;5014898;28;20133;-93
2023/05/05 01:10:32;;;;;;;10.00;5.05;;;;;;;;;;5014688;28;20045;-92
2023/05/05 01:13:18;;;;;;;6.90;4.70;;;;;;;;;;5014642;28;20054;-92
2023/05/05 01:15:48;;;;;;;5.43;4.30;;;;;;;;;;5014587;28;20080;-92
2023/05/05 01:18:27;;;;;;;7.35;4.70;;;;;;;;;;5014586;28;20054;-92
2023/05/05 01:21:16;;;;;;;5.95;4.90;;;;;;;;;;5015690;28;20562;-92
2023/05/05 01:24:06;;;;;;;9.27;5.20;;;;;;;;;;5014119;28;20054;-92
2023/05/05 01:26:33;;;;;;;6.82;4.75;;;;;;;;;;5014222;28;20213;-92
2023/05/05 01:29:34;;;;;;;5.13;4.63;;;;;;;;;;5013480;28;20133;-93
2023/05/05 01:32:03;;;;;;;7.80;5.13;;;;;;;;;;5003714;28;20152;-92
2023/05/05 01:34:35;;;;;;;6.60;4.28;;;;;;;;;;5014326;28;20060;-92
2023/05/05 01:37:13;;;;;;;8.38;4.90;;;;;;;;;;5014403;28;20062;-92
2023/05/05 01:39:42;;;;;;;6.45;5.18;;;;;;;;;;5014384;28;20057;-92
2023/05/05 01:42:13;;;;;;;8.80;5.32;;;;;;;;;;5014504;28;20056;-93
2023/05/05 01:44:42;;;;;;;14.65;6.13;;;;;;;;;;5018207;28;20053;-92
2023/05/05 01:47:14;;;;;;;7.05;5.10;;;;;;;;;;5033874;28;20050;-92
2023/05/05 01:49:45;;;;;;;8.20;5.50;;;;;;;;;;5017505;28;20083;-92
2023/05/05 01:52:17;;;;;;;5.53;5.03;;;;;;;;;;5014009;28;20518;-92
2023/05/05 01:54:45;;;;;;;5.75;5.18;;;;;;;;;;5014085;28;20072;-92
2023/05/05 01:57:13;;;;;;;8.35;5.07;;;;;;;;;;5014146;28;20161;-92
2023/05/05 01:59:40;;;;;;;7.47;5.82;;;;;;;;;;5013873;28;20132;-92
2023/05/05 02:02:09;;;;;;;5.93;5.28;;;;;;;;;;5013905;28;20133;-93
2023/05/05 02:04:41;;;;;;;5.38;4.97;;;;;;;;;;5013938;28;20050;-92
2023/05/05 02:07:08;;;;;;;12.25;5.75;;;;;;;;;;5014026;28;20503;-92
2023/05/05 02:09:36;;;;;;;10.50;5.10;;;;;;;;;;5013802;28;20516;-92
2023/05/05 02:12:04;;;;;;;6.78;5.65;;;;;;;;;;5013679;28;20072;-92
2023/05/05 02:14:31;;;;;;;8.32;5.10;;;;;;;;;;5013482;28;20125;-93
2023/05/05 02:17:00;;;;;;;8.82;5.30;;;;;;;;;;5014007;28;20133;-92
2023/05/05 02:19:35;;;;;;;5.90;5.22;;;;;;;;;;5013779;28;20073;-93
2023/05/05 02:22:03;;;;;;;6.82;5.97;;;;;;;;;;5013638;28;20061;-92
2023/05/05 02:24:31;;;;;;;8.10;6.22;;;;;;;;;;5013518;28;20132;-92
2023/05/05 02:26:59;;;;;;;8.43;7.60;;;;;;;;;;5013337;28;20046;-92
2023/05/05 02:29:38;;;;;;;14.38;10.60;;;;;;;;;;5013522;28;20505;-93
2023/05/05 02:32:11;;;;;;;18.42;12.43;;;;;;;;;;5013378;28;20046;-93
2023/05/05 02:34:39;;;;;;;10.65;8.70;;;;;;;;;;5012217;28;20216;-93
2023/05/05 02:37:08;;;;;;;9.70;7.30;;;;;;;;;;5012938;28;20064;-92
2023/05/05 02:39:57;;;;;;;10.52;7.82;;;;;;;;;;5012825;28;20137;-92
2023/05/05 02:42:28;;;;;;;9.18;6.55;;;;;;;;;;5013108;28;20502;-93
2023/05/05 02:44:58;;;;;;;10.43;7.78;;;;;;;;;;5013289;28;20100;-92
2023/05/05 02:47:35;;;;;;;12.90;8.55;;;;;;;;;;5012831;28;20100;-92
2023/05/05 02:50:04;;;;;;;15.70;8.05;;;;;;;;;;5013126;28;20103;-93
2023/05/05 02:52:32;;;;;;;12.55;8.98;;;;;;;;;;5013010;28;20446;-92
2023/05/05 02:54:59;;;;;;;9.35;7.57;;;;;;;;;;5013366;28;20056;-92
2023/05/05 02:57:31;;;;;;;9.45;7.25;;;;;;;;;;5014093;28;20046;-93
2023/05/05 03:00:05;;;;;;;8.25;6.70;;;;;;;;;;5034149;28;20054;-92
2023/05/05 03:02:40;;;;;;;8.90;6.72;;;;;;;;;;5035359;28;20038;-92
2023/05/05 03:05:11;;;;;;;7.25;5.97;;;;;;;;;;5012931;28;20053;-92
2023/05/05 03:07:41;;;;;;;7.72;6.55;;;;;;;;;;5012789;28;20137;-92
2023/05/05 03:10:11;;;;;;;7.55;6.07;;;;;;;;;;5012885;28;20082;-93
2023/05/05 03:12:47;;;;;;;8.30;6.32;;;;;;;;;;5012758;28;20068;-93
2023/05/05 03:15:15;;;;;;;8.07;6.80;;;;;;;;;;5012693;28;20057;-92
2023/05/05 03:17:43;;;;;;;12.25;7.13;;;;;;;;;;5012815;28;20050;-92
2023/05/05 03:20:11;;;;;;;17.35;10.25;;;;;;;;;;5013297;28;20064;-94
2023/05/05 03:22:39;;;;;;;13.65;8.98;;;;;;;;;;5013397;28;20064;-92
2023/05/05 03:25:07;;;;;;;15.55;8.48;;;;;;;;;;5012617;28;20049;-93
2023/05/05 03:27:34;;;;;;;10.77;7.20;;;;;;;;;;5012219;28;20060;-93
2023/05/05 03:30:02;;;;;;;8.77;7.13;;;;;;;;;;5012511;28;20052;-92
2023/05/05 03:32:30;;;;;;;10.43;6.95;;;;;;;;;;5012525;28;20050;-92
2023/05/05 03:34:57;;;;;;;9.45;6.50;;;;;;;;;;5012621;28;20046;-92
2023/05/05 03:37:24;;;;;;;7.90;6.57;;;;;;;;;;5012349;28;20060;-92
2023/05/05 03:39:52;;;;;;;9.95;7.07;;;;;;;;;;5012481;28;20072;-92
2023/05/05 03:42:19;;;;;;;10.73;6.88;;;;;;;;;;5012378;28;20049;-92
2023/05/05 03:44:47;;;;;;;7.38;6.43;;;;;;;;;;5012525;28;20046;-91
2023/05/05 03:47:14;;;;;;;9.05;7.00;;;;;;;;;;5012368;28;20089;-92
2023/05/05 03:49:42;;;;;;;7.72;6.75;;;;;;;;;;5012927;28;20062;-92
2023/05/05 03:52:09;;;;;;;8.07;6.30;;;;;;;;;;5014279;28;20054;-93
2023/05/05 03:54:41;;;;;;;7.00;6.15;;;;;;;;;;5016855;28;20153;-92
2023/05/05 03:57:08;;;;;;;10.10;6.22;;;;;;;;;;5016206;28;20054;-93
2023/05/05 03:59:38;;;;;;;14.45;9.00;;;;;;;;;;5016115;28;20042;-93
2023/05/05 04:02:05;;;;;;;19.60;11.65;;;;;;;;;;5016030;28;20059;-91
2023/05/05 04:04:32;;;;;;;11.35;8.88;;;;;;;;;;5015962;28;20050;-93
2023/05/05 04:07:00;;;;;;;13.65;8.07;;;;;;;;;;5016045;28;20438;-93
2023/05/05 04:09:27;;;;;;;15.55;7.43;;;;;;;;;;5016283;28;20057;-92
2023/05/05 04:11:54;;;;;;;13.77;8.25;;;;;;;;;;5016000;28;20144;-92
2023/05/05 04:14:22;;;;;;;21.60;8.15;;;;;;;;;;5018060;28;20064;-92
2023/05/05 04:16:49;;;;;;;25.80;9.60;;;;;;;;;;5036533;28;20045;-92
2023/05/05 04:19:17;;;;;;;11.95;8.73;;;;;;;;;;5021339;28;20081;-93
2023/05/05 04:21:44;;;;;;;14.77;9.30;;;;;;;;;;5015383;28;20069;-91
2023/05/05 04:24:12;;;;;;;14.25;9.57;;;;;;;;;;5015320;28;20136;-93
2023/05/05 04:26:40;;;;;;;17.08;10.23;;;;;;;;;;5015827;28;20056;-93
2023/05/05 04:29:08;;;;;;;9.93;8.07;;;;;;;;;;5015271;28;20064;-92
2023/05/05 04:31:36;;;;;;;12.45;7.80;;;;;;;;;;5015445;28;20050;-92
2023/05/05 04:34:03;;;;;;;8.05;7.25;;;;;;;;;;5015316;28;20077;-93
2023/05/05 04:36:30;;;;;;;12.57;6.88;;;;;;;;;;5015666;28;20054;-93
2023/05/05 04:38:58;;;;;;;15.82;6.93;;;;;;;;;;5015376;28;20586;-92
2023/05/05 04:41:26;;;;;;;8.90;6.50;;;;;;;;;;5015524;28;20060;-92
2023/05/05 04:43:56;;;;;;;13.65;6.60;;;;;;;;;;5015656;28;20053;-92
2023/05/05 04:46:24;;;;;;;12.82;6.07;;;;;;;;;;5014881;28;20050;-93
2023/05/05 04:48:52;;;;;;;5.95;5.43;;;;;;;;;;5015046;28;20054;-93
2023/05/05 04:51:19;;;;;;;7.85;6.75;;;;;;;;;;5015064;28;20046;-92
2023/05/05 04:53:46;;;;;;;8.82;6.72;;;;;;;;;;5015150;28;20088;-93
2023/05/05 04:56:14;;;;;;;14.90;6.65;;;;;;;;;;5015173;28;20054;-93
2023/05/05 04:58:41;;;;;;;10.73;5.82;;;;;;;;;;5015084;28;20050;-93
2023/05/05 05:01:09;;;;;;;8.48;4.88;;;;;;;;;;5014601;28;20042;-93
2023/05/05 05:03:36;;;;;;;10.57;5.10;;;;;;;;;;5014871;28;20513;-93
2023/05/05 05:06:04;;;;;;;8.68;5.28;;;;;;;;;;5015014;28;20490;-92
2023/05/05 05:08:31;;;;;;;10.63;6.00;;;;;;;;;;5015571;28;20141;-93
2023/05/05 05:10:59;;;;;;;10.52;5.57;;;;;;;;;;5019784;28;20049;-93
2023/05/05 05:13:26;;;;;;;6.93;5.63;;;;;;;;;;5030310;28;20050;-93
2023/05/05 05:15:54;;;;;;;11.82;6.05;;;;;;;;;;5014848;28;20410;-93
2023/05/05 05:18:21;;;;;;;10.32;6.25;;;;;;;;;;5014306;28;20141;-92
2023/05/05 05:20:49;;;;;;;7.90;4.88;;;;;;;;;;5014853;28;20141;-93
2023/05/05 05:23:16;;;;;;;9.30;3.65;;;;;;;;;;5014538;28;20049;-94
2023/05/05 05:25:43;;;;;;;8.95;3.88;;;;;;;;;;5015161;28;20124;-94
2023/05/05 05:28:11;;;;;;;72.47;12.88;;;;;;;;;;5015741;28;20046;-94
2023/05/05 05:30:38;;;;;;;39.25;5.85;;;;;;;;;;5025948;28;20061;-93
2023/05/05 05:33:06;;;;;;;17.00;3.85;;;;;;;;;;5033837;28;20073;-93
2023/05/05 05:35:33;;;;;;;7.10;3.13;;;;;;;;;;5014683;28;20445;-93
2023/05/05 05:38:01;;;;;;;8.35;2.90;;;;;;;;;;5015042;28;20107;-93
2023/05/05 05:40:28;;;;;;;29.85;4.65;;;;;;;;;;5014973;28;20141;-93
2023/05/05 05:42:56;;;;;;;6.53;3.65;;;;;;;;;;5014614;28;20586;-93
2023/05/05 05:45:23;;;;;;;15.68;8.25;;;;;;;;;;5014917;28;20145;-92
2023/05/05 05:47:51;;;;;;;15.98;9.40;;;;;;;;;;5014494;28;20117;-93
2023/05/05 05:50:18;;;;;;;3.85;3.55;;;;;;;;;;5015654;28;20057;-93
2023/05/05 05:52:45;;;;;;;6.43;3.15;;;;;;;;;;5015499;28;20123;-94
2023/05/05 05:55:13;;;;;;;66.10;6.93;;;;;;;;;;5014342;28;20137;-93
2023/05/05 05:57:40;;;;;;;10.10;3.53;;;;;;;;;;5014143;28;20141;-93
2023/05/05 06:00:08;;;;;;;18.73;3.78;;;;;;;;;;5016309;28;20092;-94
2023/05/05 06:02:36;;;;;;;49.53;5.57;;;;;;;;;;5017289;28;20343;-94
2023/05/05 06:05:03;;;;;;;15.18;2.97;;;;;;;;;;5014636;28;20054;-94
2023/05/05 06:07:31;;;;;;;2.47;2.33;;;;;;;;;;5014298;28;20049;-92
2023/05/05 06:09:58;;;;;;;4.15;3.20;;;;;;;;;;5015553;28;20084;-93
2023/05/05 06:12:45;;;;;;;7.85;2.30;;;;;;;;;;5002758;28;20410;-94
2023/05/05 06:15:14;;;;;;;18.73;3.47;;;;;;;;;;5015423;28;20101;-93
2023/05/05 06:17:42;;;;;;;15.18;3.45;;;;;;;;;;5016662;28;20453;-93
2023/05/05 06:20:11;;;;;;;5.78;2.58;;;;;;;;;;5017152;28;20112;-93
2023/05/05 06:22:39;;;;;;;4.10;2.00;;;;;;;;;;5014122;28;20418;-93
2023/05/05 06:25:06;;;;;;;121.93;102.88;;;;;;;;;;5014634;28;20054;-92
2023/05/05 06:27:33;;;;;;;15.45;3.90;;;;;;;;;;5013169;28;20069;-92
2023/05/05 06:30:01;;;;;;;5.10;2.80;;;;;;;;;;5013471;28;20096;-93
2023/05/05 06:32:29;;;;;;;14.20;3.65;;;;;;;;;;5013210;28;20418;-92
2023/05/05 06:34:56;;;;;;;22.23;3.78;;;;;;;;;;5013296;28;20050;-93
2023/05/05 06:37:24;;;;;;;11.20;3.60;;;;;;;;;;5012362;28;20132;-93
2023/05/05 06:39:51;;;;;;;9.68;2.67;;;;;;;;;;5013958;28;20053;-92
2023/05/05 06:42:18;;;;;;;13.57;3.10;;;;;;;;;;5013491;28;20554;-92
2023/05/05 06:44:46;;;;;;;17.63;3.22;;;;;;;;;;5015230;28;20046;-92
2023/05/05 06:47:13;;;;;;;16.67;2.60;;;;;;;;;;5028478;28;20157;-92
2023/05/05 06:49:40;;;;;;;47.90;28.73;;;;;;;;;;5017282;28;20493;-91
2023/05/05 06:52:08;;;;;;;253.75;174.98;;;;;;;;;;5012276;28;20505;-92
2023/05/05 06:54:35;;;;;;;31.88;15.10;;;;;;;;;;5012227;28;20054;-92
2023/05/05 06:57:02;;;;;;;76.25;37.17;;;;;;;;;;5012324;28;20437;-91
2023/05/05 06:59:29;;;;;;;32.75;19.10;;;;;;;;;;5013230;28;20053;-92
2023/05/05 07:01:57;;;;;;;50.22;34.53;;;;;;;;;;5011921;28;20049;-90
2023/05/05 07:04:25;;;;;;;14.52;4.75;;;;;;;;;;5012272;28;20050;-92
2023/05/05 07:06:54;;;;;;;26.63;15.23;;;;;;;;;;5012081;28;20045;-91
2023/05/05 07:09:21;;;;;;;19.33;10.13;;;;;;;;;;5011606;28;20045;-88
2023/05/05 07:11:48;;;;;;;31.40;15.95;;;;;;;;;;5011909;28;20137;-89
2023/05/05 07:14:15;;;;;;;31.58;17.80;;;;;;;;;;5012159;28;20164;-88
2023/05/05 07:16:42;;;;;;;12.10;3.40;;;;;;;;;;5011963;28;20409;-89
2023/05/05 07:19:10;;;;;;;8.85;2.25;;;;;;;;;;5012782;28;20045;-90
2023/05/05 07:21:38;;;;;;;9.00;2.70;;;;;;;;;;4974696;28;1149314;-92
2023/05/05 07:24:06;;;;;;;5.03;2.25;;;;;;;;;;5014073;28;20120;-91
2023/05/05 07:26:33;;;;;;;18.30;4.60;;;;;;;;;;5017739;28;20068;-89
2023/05/05 07:29:03;;;;;;;6.95;2.50;;;;;;;;;;5021887;28;20054;-91
2023/05/05 07:31:30;;;;;;;7.53;1.70;;;;;;;;;;5017430;28;20100;-90
2023/05/05 07:33:58;;;;;;;7.32;2.08;;;;;;;;;;5017686;28;20072;-90
2023/05/05 07:36:29;;;;;;;2.65;2.10;;;;;;;;;;5017905;28;20046;-90
2023/05/05 07:38:56;;;;;;;5.25;2.00;;;;;;;;;;5018203;28;20088;-91
2023/05/05 07:41:23;;;;;;;2.15;1.75;;;;;;;;;;5016555;28;20054;-91
2023/05/05 07:43:51;;;;;;;3.30;1.90;;;;;;;;;;5017735;28;20495;-90
2023/05/05 07:46:18;;;;;;;2.95;1.50;;;;;;;;;;5016272;28;20057;-90
2023/05/05 07:48:45;;;;;;;2.17;1.63;;;;;;;;;;5016032;28;20050;-90
2023/05/05 07:51:15;;;;;;;1.65;1.55;;;;;;;;;;5016185;28;20060;-88
2023/05/05 07:53:42;;;;;;;2.00;1.52;;;;;;;;;;5015925;28;20138;-90
2023/05/05 07:56:09;;;;;;;5.20;1.55;;;;;;;;;;5015715;28;20058;-89
2023/05/05 07:58:37;;;;;;;3.05;1.98;;;;;;;;;;5015817;28;20093;-89
2023/05/05 08:01:05;;;;;;;4.72;2.13;;;;;;;;;;5023837;28;20064;-89
2023/05/05 08:03:33;;;;;;;6.65;2.28;;;;;;;;;;5029545;28;20441;-90
2023/05/05 08:06:06;;;;;;;4.20;2.05;;;;;;;;;;5017104;28;20228;-90
2023/05/05 08:08:33;;;;;;;5.15;2.25;;;;;;;;;;5013942;28;20421;-87
2023/05/05 08:11:00;;;;;;;7.80;2.47;;;;;;;;;;5015733;28;20056;-91
2023/05/05 08:13:29;;;;;;;9.38;2.83;;;;;;;;;;5017246;28;20524;-94
2023/05/05 08:15:56;;;;;;;26.48;3.58;;;;;;;;;;5015972;28;20080;-90
2023/05/05 08:18:23;;;;;;;11.45;3.35;;;;;;;;;;5015788;28;20049;-90
2023/05/05 08:20:51;;;;;;;11.23;2.95;;;;;;;;;;5016147;28;20050;-91
2023/05/05 08:23:19;;;;;;;12.50;3.20;;;;;;;;;;5016147;28;20104;-90
2023/05/05 08:25:46;;;;;;;5.00;2.85;;;;;;;;;;5016338;28;20589;-91
2023/05/05 08:28:13;;;;;;;5.40;2.88;;;;;;;;;;5015796;28;20402;-92
2023/05/05 08:30:41;;;;;;;3.20;2.67;;;;;;;;;;5015342;28;20054;-91
2023/05/05 08:33:08;;;;;;;6.45;2.28;;;;;;;;;;5015543;28;20066;-90
2023/05/05 08:35:36;;;;;;;3.95;2.30;;;;;;;;;;5016526;28;20153;-92
2023/05/05 08:38:03;;;;;;;8.70;2.53;;;;;;;;;;5016140;28;20054;-90
2023/05/05 08:40:35;;;;;;;7.22;2.28;;;;;;;;;;5016902;28;20054;-92
2023/05/05 08:43:02;;;;;;;2.83;2.13;;;;;;;;;;5017143;28;20137;-92
2023/05/05 08:45:30;;;;;;;4.03;2.03;;;;;;;;;;5016675;28;20050;-91
2023/05/05 08:48:00;;;;;;;5.40;2.15;;;;;;;;;;5018100;28;20058;-91
2023/05/05 08:50:28;;;;;;;2.97;1.80;;;;;;;;;;5017117;28;20046;-91
2023/05/05 08:52:58;;;;;;;4.20;2.13;;;;;;;;;;5016724;28;20049;-90
2023/05/05 08:55:26;;;;;;;2.53;2.33;;;;;;;;;;5015935;28;20058;-92
2023/05/05 08:57:57;;;;;;;3.65;2.05;;;;;;;;;;5018454;28;20050;-92
2023/05/05 09:00:25;;;;;;;3.33;2.63;;;;;;;;;;5016998;28;20062;-92
2023/05/05 09:02:54;;;;;;;3.22;2.50;;;;;;;;;;5014975;28;20054;-90
2023/05/05 09:05:21;;;;;;;6.88;2.40;;;;;;;;;;5014675;28;20050;-92
2023/05/05 09:07:49;;;;;;;5.65;2.53;;;;;;;;;;5015929;28;20077;-92
2023/05/05 09:10:17;;;;;;;2.30;2.10;;;;;;;;;;5014299;28;20058;-91
2023/05/05 09:12:44;;;;;;;9.40;2.25;;;;;;;;;;5015146;28;20053;-93
2023/05/05 09:15:15;;;;;;;7.97;2.30;;;;;;;;;;5015319;28;20057;-92
2023/05/05 09:17:42;;;;;;;9.27;3.17;;;;;;;;;;5027292;28;20077;-91
2023/05/05 09:20:11;;;;;;;5.45;3.50;;;;;;;;;;5014917;28;20056;-90
2023/05/05 09:22:43;;;;;;;3.30;3.00;;;;;;;;;;5014352;28;20058;-90
2023/05/05 09:25:11;;;;;;;6.68;3.42;;;;;;;;;;5014772;28;20077;-90
2023/05/05 09:27:40;;;;;;;4.80;2.92;;;;;;;;;;5014202;28;20060;-90
2023/05/05 09:30:11;;;;;;;4.90;2.60;;;;;;;;;;5014368;28;20510;-89
2023/05/05 09:32:54;;;;;;;3.50;2.00;;;;;;;;;;5014469;28;20042;-90
2023/05/05 09:35:22;;;;;;;3.92;2.90;;;;;;;;;;5014730;28;20057;-90
2023/05/05 09:37:49;;;;;;;6.70;2.50;;;;;;;;;;5015482;28;20072;-91
2023/05/05 09:40:18;;;;;;;7.10;2.88;;;;;;;;;;5017339;28;20053;-90
2023/05/05 09:42:45;;;;;;;7.78;3.85;;;;;;;;;;5015213;28;20100;-92
2023/05/05 09:45:18;;;;;;;6.50;4.40;;;;;;;;;;5016032;28;20110;-92
2023/05/05 09:47:46;;;;;;;;;;;;;;;;;;5015021;28;20129;-92
2023/05/05 09:50:14;;;;;;;6.13;5.20;;;;;;;;;;5013460;28;19921;-92
2023/05/05 09:52:42;;;;;;;9.77;4.00;;;;;;;;;;5014282;28;20409;-90
2023/05/05 09:55:18;;;;;;;13.35;3.83;;;;;;;;;;5013954;28;20045;-91
2023/05/05 09:57:46;;;;;;;10.70;4.18;;;;;;;;;;5015367;28;20054;-94
2023/05/05 10:00:13;;;;;;;4.72;4.32;;;;;;;;;;5015947;28;20054;-94
2023/05/05 10:02:41;;;;;;;4.25;3.70;;;;;;;;;;5014367;28;20498;-89
2023/05/05 10:05:12;;;;;;;4.38;3.60;;;;;;;;;;5014089;28;20049;-89
2023/05/05 10:07:44;;;;;;;6.07;4.10;;;;;;;;;;5014486;28;20050;-91
2023/05/05 10:10:13;;;;;;;5.20;3.58;;;;;;;;;;5014828;28;20140;-90
2023/05/05 10:12:40;;;;;;;6.70;3.60;;;;;;;;;;5014126;28;20517;-91
2023/05/05 10:15:09;;;;;;;5.85;3.80;;;;;;;;;;5014504;28;20141;-89
2023/05/05 10:17:38;;;;;;;4.80;3.50;;;;;;;;;;5014178;28;20058;-90
2023/05/05 10:20:10;;;;;;;8.20;4.10;;;;;;;;;;5014099;28;20053;-91
2023/05/05 10:22:37;;;;;;;7.78;3.80;;;;;;;;;;5014529;28;20141;-92
2023/05/05 10:25:12;;;;;;;5.13;3.58;;;;;;;;;;5015199;28;20085;-92
2023/05/05 10:27:47;;;;;;;5.20;3.88;;;;;;;;;;5014108;28;20129;-90
2023/05/05 10:30:25;;;;;;;8.05;4.18;;;;;;;;;;5014370;28;20049;-91
2023/05/05 10:32:54;;;;;;;17.90;5.15;;;;;;;;;;5032345;28;20089;-89
2023/05/05 10:35:40;;;;;;;4.93;4.43;;;;;;;;;;5017518;28;20060;-89
2023/05/05 10:38:08;;;;;;;6.07;3.50;;;;;;;;;;5014060;28;20089;-89
2023/05/05 10:40:36;;;;;;;4.10;3.10;;;;;;;;;;5013455;28;20108;-90
2023/05/05 10:43:03;;;;;;;4.65;2.92;;;;;;;;;;5013412;28;20053;-87
2023/05/05 10:45:31;;;;;;;9.43;3.70;;;;;;;;;;5014726;28;20045;-90
2023/05/05 10:47:59;;;;;;;33.25;5.97;;;;;;;;;;5014035;28;20573;-93
2023/05/05 10:50:29;;;;;;;12.43;3.72;;;;;;;;;;5013553;28;20108;-89
2023/05/05 10:53:05;;;;;;;8.30;3.65;;;;;;;;;;5002688;28;20491;-91
2023/05/05 10:55:51;;;;;;;3.55;3.00;;;;;;;;;;4995257;28;20056;-91
2023/05/05 10:58:35;;;;;;;7.28;3.50;;;;;;;;;;4995097;28;20042;-93
2023/05/05 11:01:35;;;;;;;8.68;3.78;;;;;;;;;;4993481;28;20073;-90
2023/05/05 11:04:19;;;;;;;9.43;3.75;;;;;;;;;;4993672;28;20499;-91
2023/05/05 11:06:47;;;;;;;;;;;;;;;;;;4994177;28;20113;-91
2023/05/05 11:09:27;;;;;;;8.55;3.78;;;;;;;;;;4994948;28;19929;-91
2023/05/05 11:12:01;;;;;;;5.25;2.92;;;;;;;;;;4994163;28;20503;-92
2023/05/05 11:14:29;;;;;;;5.03;3.30;;;;;;;;;;4993775;28;20053;-89
2023/05/05 11:16:56;;;;;;;9.75;3.50;;;;;;;;;;4993766;28;20093;-93
2023/05/05 11:19:42;;;;;;;5.25;3.20;;;;;;;;;;4993410;28;20046;-90
2023/05/05 11:22:10;;;;;;;4.70;3.30;;;;;;;;;;4993917;28;20058;-93
2023/05/05 11:24:38;;;;;;;6.85;3.78;;;;;;;;;;4993775;28;20054;-89
2023/05/05 11:27:06;;;;;;;5.22;3.42;;;;;;;;;;4993251;28;20057;-91
2023/05/05 11:29:52;;;;;;;8.38;3.38;;;;;;;;;;4992995;28;20058;-88
2023/05/05 11:32:19;;;;;;;6.40;3.05;;;;;;;;;;4992842;28;20050;-90
2023/05/05 11:34:49;;;;;;;16.58;3.72;;;;;;;;;;4993919;28;20062;-89
2023/05/05 11:37:23;;;;;;;9.93;3.47;;;;;;;;;;4994304;28;20038;-90
2023/05/05 11:39:59;;;;;;;15.50;3.67;;;;;;;;;;4994746;28;20046;-91
2023/05/05 11:42:27;;;;;;;5.47;3.53;;;;;;;;;;4995421;28;20053;-90
2023/05/05 11:44:54;;;;;;;4.55;2.97;;;;;;;;;;4996037;28;20438;-92
2023/05/05 11:47:22;;;;;;;9.93;3.72;;;;;;;;;;5013211;28;20058;-92
2023/05/05 11:49:49;;;;;;;6.20;3.58;;;;;;;;;;5012359;28;20056;-91
2023/05/05 11:52:16;;;;;;;4.45;3.97;;;;;;;;;;5000624;28;20538;-92
2023/05/05 11:54:48;;;;;;;15.18;4.25;;;;;;;;;;4995965;28;20501;-93
2023/05/05 11:57:18;;;;;;;18.17;3.78;;;;;;;;;;4994633;28;20057;-89
2023/05/05 11:59:53;;;;;;;12.25;4.60;;;;;;;;;;4993499;28;20043;-90
2023/05/05 12:02:21;;;;;;;5.90;4.28;;;;;;;;;;4978765;28;20104;-90
2023/05/05 12:04:49;;;;;;;9.65;3.97;;;;;;;;;;4994301;28;20058;-88
2023/05/05 12:07:17;;;;;;;4.15;3.58;;;;;;;;;;4994761;28;20085;-91
2023/05/05 12:09:45;;;;;;;7.50;4.65;;;;;;;;;;4993921;28;20050;-92
2023/05/05 12:12:13;;;;;;;7.00;3.90;;;;;;;;;;4994234;28;20138;-91
2023/05/05 12:14:53;;;;;;;4.95;3.72;;;;;;;;;;4997346;28;20050;-93
2023/05/05 12:17:21;;;;;;;9.88;4.22;;;;;;;;;;4998211;28;20050;-90
2023/05/05 12:19:50;;;;;;;7.53;3.90;;;;;;;;;;4997527;28;20488;-88
2023/05/05 12:22:19;;;;;;;9.88;4.32;;;;;;;;;;4997160;28;20149;-91
2023/05/05 12:24:57;;;;;;;7.00;4.20;;;;;;;;;;4997535;28;20573;-87
2023/05/05 12:27:25;;;;;;;6.68;3.72;;;;;;;;;;4996537;28;20060;-88
2023/05/05 12:29:54;;;;;;;3.28;3.00;;;;;;;;;;4997445;28;20057;-90
2023/05/05 12:32:22;;;;;;;5.35;3.30;;;;;;;;;;4998497;28;20051;-92
2023/05/05 12:34:53;;;;;;;11.43;3.40;;;;;;;;;;4997170;28;20056;-90
2023/05/05 12:37:21;;;;;;;3.80;2.65;;;;;;;;;;4997338;28;20046;-91
2023/05/05 12:39:49;;;;;;;6.00;3.40;;;;;;;;;;4998522;28;20058;-92
2023/05/05 12:42:16;;;;;;;4.45;2.72;;;;;;;;;;4999462;28;20137;-92
2023/05/05 12:44:45;;;;;;;4.28;2.70;;;;;;;;;;4998916;28;20046;-91
2023/05/05 12:47:13;;;;;;;3.55;2.67;;;;;;;;;;4998158;28;20054;-92
2023/05/05 12:49:47;;;;;;;3.50;2.50;;;;;;;;;;4997190;28;20057;-95
2023/05/05 12:52:15;;;;;;;46.50;5.25;;;;;;;;;;4998185;28;20046;-92
2023/05/05 12:54:52;;;;;;;7.70;3.20;;;;;;;;;;4997902;28;20141;-90
2023/05/05 12:57:21;;;;;;;3.05;2.72;;;;;;;;;;4998452;28;20054;-91
2023/05/05 12:59:48;;;;;;;2.85;2.55;;;;;;;;;;4998401;28;20065;-91
2023/05/05 13:02:16;;;;;;;5.05;2.92;;;;;;;;;;4998493;28;20055;-90
2023/05/05 13:04:53;;;;;;;5.05;3.10;;;;;;;;;;5011887;28;20110;-93
2023/05/05 13:07:21;;;;;;;3.00;2.20;;;;;;;;;;5009391;28;20073;-91
2023/05/05 13:09:49;;;;;;;9.05;2.38;;;;;;;;;;4996933;28;20082;-92
2023/05/05 13:12:17;;;;;;;6.43;2.88;;;;;;;;;;4997555;28;20056;-91
2023/05/05 13:14:45;;;;;;;3.88;2.72;;;;;;;;;;4997483;28;20431;-91
2023/05/05 13:17:13;;;;;;;2.70;2.50;;;;;;;;;;4997806;28;20388;-91
2023/05/05 13:19:41;;;;;;;2.17;2.08;;;;;;;;;;4997598;28;20050;-91
2023/05/05 13:22:09;;;;;;;9.10;2.22;;;;;;;;;;4996786;28;20051;-89
2023/05/05 13:24:36;;;;;;;3.17;2.20;;;;;;;;;;4996772;28;20054;-91
2023/05/05 13:27:17;;;;;;;5.03;2.22;;;;;;;;;;4996182;28;20055;-91
2023/05/05 13:29:44;;;;;;;3.25;1.85;;;;;;;;;;4997744;28;20056;-90
2023/05/05 13:32:12;;;;;;;5.63;2.20;;;;;;;;;;4995662;28;20053;-90
2023/05/05 13:34:40;;;;;;;5.10;1.90;;;;;;;;;;4997894;28;20049;-91
2023/05/05 13:37:07;;;;;;;3.38;2.40;;;;;;;;;;4996748;28;20101;-89
2023/05/05 13:39:35;;;;;;;2.58;1.92;;;;;;;;;;4995932;28;20093;-93
2023/05/05 13:42:03;;;;;;;2.50;1.85;;;;;;;;;;4999907;28;20050;-90
2023/05/05 13:44:30;;;;;;;4.43;1.92;;;;;;;;;;4998407;28;20042;-90
2023/05/05 13:46:57;;;;;;;4.30;2.00;;;;;;;;;;4995862;28;20057;-90
2023/05/05 13:49:25;;;;;;;2.08;1.80;;;;;;;;;;4996570;28;20050;-92
2023/05/05 13:51:54;;;;;;;5.60;2.25;;;;;;;;;;4996367;28;20053;-90
2023/05/05 13:54:22;;;;;;;8.02;2.03;;;;;;;;;;4995421;28;20064;-90
2023/05/05 13:56:49;;;;;;;8.15;1.95;;;;;;;;;;4996305;28;20057;-90
2023/05/05 13:59:16;;;;;;;5.63;2.30;;;;;;;;;;4995708;28;20046;-88
2023/05/05 14:01:43;;;;;;;2.67;1.60;;;;;;;;;;4997282;28;20050;-90
2023/05/05 14:04:10;;;;;;;3.03;1.55;;;;;;;;;;4999172;28;20054;-90
2023/05/05 14:06:38;;;;;;;3.28;1.50;;;;;;;;;;4995790;28;20043;-93
2023/05/05 14:09:06;;;;;;;1.70;1.60;;;;;;;;;;4996013;28;20487;-91
2023/05/05 14:11:34;;;;;;;3.53;1.90;;;;;;;;;;4994370;28;20419;-89
2023/05/05 14:14:01;;;;;;;10.20;2.92;;;;;;;;;;4995191;28;20055;-93
2023/05/05 14:16:29;;;;;;;2.42;2.25;;;;;;;;;;4996359;28;20050;-94
2023/05/05 14:18:56;;;;;;;2.40;1.83;;;;;;;;;;4996790;28;20053;-90
2023/05/05 14:21:23;;;;;;;8.85;2.17;;;;;;;;;;5014096;28;20056;-90
2023/05/05 14:23:52;;;;;;;3.92;1.88;;;;;;;;;;4999688;28;20054;-92
2023/05/05 14:26:19;;;;;;;9.43;1.98;;;;;;;;;;4993169;28;20057;-90
2023/05/05 14:28:46;;;;;;;8.23;2.20;;;;;;;;;;4994887;28;20058;-91
2023/05/05 14:31:16;;;;;;;18.52;2.53;;;;;;;;;;4995753;28;20117;-90
2023/05/05 14:33:44;;;;;;;7.47;2.00;;;;;;;;;;4994399;28;20050;-90
2023/05/05 14:36:13;;;;;;;9.88;1.83;;;;;;;;;;4996736;28;20402;-91
2023/05/05 14:38:41;;;;;;;2.17;1.98;;;;;;;;;;5011927;28;20108;-91
2023/05/05 14:41:08;;;;;;;11.52;2.08;;;;;;;;;;5013885;28;20073;-91
2023/05/05 14:43:36;;;;;;;14.18;2.17;;;;;;;;;;5015562;28;20473;-92
2023/05/05 14:46:05;;;;;;;3.13;1.70;;;;;;;;;;5013125;28;20054;-90
2023/05/05 14:48:33;;;;;;;9.48;2.00;;;;;;;;;;5014798;28;20048;-91
2023/05/05 14:51:01;;;;;;;12.23;2.10;;;;;;;;;;5013992;28;20050;-92